createdAt,value
2019-05-26T00:01:58.366Z,20.85
2019-05-26T00:04:28.760Z,20.83
2019-05-26T00:07:06.589Z,20.79
2019-05-26T00:09:35.912Z,20.76
2019-05-26T00:12:08.886Z,20.72
2019-05-26T00:14:37.976Z,20.66
2019-05-26T00:17:07.026Z,20.62
2019-05-26T00:19:39.167Z,20.63
2019-05-26T00:22:11.393Z,20.62
2019-05-26T00:24:42.059Z,20.59
2019-05-26T00:27:15.126Z,20.57
2019-05-26T00:29:44.182Z,20.56
2019-05-26T00:32:13.246Z,20.57
2019-05-26T00:37:47.684Z,20.49
2019-05-26T00:40:05.515Z,20.44
2019-05-26T00:42:38.251Z,20.34
2019-05-26T00:45:10.459Z,20.28
2019-05-26T00:47:39.535Z,20.28
2019-05-26T00:50:19.284Z,20.24
2019-05-26T00:52:56.683Z,20.18
2019-05-26T00:55:25.368Z,20.10
2019-05-26T00:57:56.277Z,20.08
2019-05-26T01:00:46.769Z,20.04
2019-05-26T01:03:15.814Z,20.01
2019-05-26T01:05:45.160Z,19.98
2019-05-26T01:08:46.410Z,19.95
2019-05-26T01:10:55.108Z,19.90
2019-05-26T01:13:53.921Z,19.88
2019-05-26T01:16:25.964Z,19.88
2019-05-26T01:19:12.036Z,19.82
2019-05-26T01:21:44.338Z,19.79
2019-05-26T01:24:13.414Z,19.75
2019-05-26T01:26:46.848Z,19.77
2019-05-26T01:29:25.980Z,19.76
2019-05-26T01:31:55.039Z,19.75
2019-05-26T01:34:24.100Z,19.70
2019-05-26T01:37:31.490Z,19.64
2019-05-26T01:43:40.563Z,19.59
2019-05-26T01:46:09.625Z,19.56
2019-05-26T01:48:38.677Z,19.55
2019-05-26T01:51:07.782Z,19.52
2019-05-26T01:53:37.165Z,19.54
2019-05-26T01:56:09.164Z,19.53
2019-05-26T01:58:47.527Z,19.46
2019-05-26T02:01:16.969Z,19.44
2019-05-26T02:03:46.037Z,19.38
2019-05-26T02:06:24.225Z,19.35
2019-05-26T02:08:53.613Z,19.34
2019-05-26T02:11:22.689Z,19.30
2019-05-26T02:13:51.875Z,19.28
2019-05-26T02:16:20.924Z,19.17
2019-05-26T02:18:50.036Z,19.13
2019-05-26T02:21:19.168Z,19.11
2019-05-26T02:23:48.501Z,19.02
2019-05-26T02:26:17.666Z,19.01
2019-05-26T02:28:46.723Z,19.00
2019-05-26T02:31:16.983Z,18.98
2019-05-26T02:33:46.093Z,18.93
2019-05-26T02:36:15.141Z,18.89
2019-05-26T02:39:01.123Z,18.88
2019-05-26T02:41:15.021Z,18.84
2019-05-26T02:43:44.381Z,18.82
2019-05-26T02:46:13.469Z,18.82
2019-05-26T02:48:42.550Z,18.75
2019-05-26T02:51:11.593Z,18.72
2019-05-26T02:53:40.923Z,18.67
2019-05-26T02:56:10.016Z,18.69
2019-05-26T02:58:39.054Z,18.65
2019-05-26T03:01:08.117Z,18.60
2019-05-26T03:03:37.479Z,18.55
2019-05-26T03:06:07.173Z,18.49
2019-05-26T03:08:36.315Z,18.50
2019-05-26T03:11:05.709Z,18.51
2019-05-26T03:13:36.597Z,18.45
2019-05-26T03:16:10.829Z,18.38
2019-05-26T03:18:40.260Z,18.35
2019-05-26T03:21:10.885Z,18.32
2019-05-26T03:23:41.855Z,18.33
2019-05-26T03:26:12.588Z,18.28
2019-05-26T03:28:41.661Z,18.27
2019-05-26T03:31:10.763Z,18.26
2019-05-26T03:33:40.710Z,18.17
2019-05-26T03:36:10.638Z,18.20
2019-05-26T03:38:39.938Z,18.15
2019-05-26T03:41:08.977Z,18.14
2019-05-26T03:43:38.057Z,18.14
2019-05-26T03:46:20.381Z,18.14
2019-05-26T03:48:50.175Z,18.11
2019-05-26T03:51:19.346Z,18.11
2019-05-26T03:53:48.436Z,18.08
2019-05-26T03:56:17.480Z,18.08
2019-05-26T03:58:49.689Z,18.06
2019-05-26T04:01:18.755Z,18.04
2019-05-26T04:03:48.133Z,18.05
2019-05-26T04:06:17.179Z,18.02
2019-05-26T04:08:46.355Z,18.02
2019-05-26T04:11:15.466Z,18.05
2019-05-26T04:13:44.795Z,18.00
2019-05-26T04:16:18.913Z,18.00
2019-05-26T04:18:52.797Z,17.99
2019-05-26T04:21:26.944Z,17.86
2019-05-26T04:23:59.022Z,17.88
2019-05-26T04:26:30.516Z,17.88
2019-05-26T04:29:03.930Z,17.91
2019-05-26T04:31:33.310Z,18.04
2019-05-26T04:34:04.024Z,18.02
2019-05-26T04:36:35.544Z,18.03
2019-05-26T04:39:08.683Z,18.02
2019-05-26T04:41:40.748Z,18.07
2019-05-26T04:44:13.434Z,18.12
2019-05-26T04:46:43.860Z,18.19
2019-05-26T04:49:13.778Z,18.23
2019-05-26T04:51:42.831Z,18.24
2019-05-26T04:54:12.186Z,18.30
2019-05-26T04:56:41.255Z,18.51
2019-05-26T04:59:10.351Z,18.75
2019-05-26T05:01:39.456Z,18.83
2019-05-26T05:04:08.801Z,18.64
2019-05-26T05:06:37.998Z,18.74
2019-05-26T05:09:08.086Z,18.79
2019-05-26T05:11:37.178Z,18.80
2019-05-26T05:14:09.070Z,18.87
2019-05-26T05:16:38.155Z,18.93
2019-05-26T05:19:07.217Z,18.98
2019-05-26T05:21:36.648Z,19.03
2019-05-26T05:24:05.764Z,18.98
2019-05-26T05:26:34.858Z,19.06
2019-05-26T05:29:03.989Z,19.16
2019-05-26T05:31:33.070Z,19.16
2019-05-26T05:34:03.010Z,19.27
2019-05-26T05:36:32.530Z,19.30
2019-05-26T05:39:02.707Z,19.35
2019-05-26T05:41:31.788Z,19.36
2019-05-26T05:44:01.172Z,19.28
2019-05-26T05:46:30.310Z,19.22
2019-05-26T05:48:59.374Z,19.25
2019-05-26T05:51:28.452Z,19.27
2019-05-26T05:53:57.820Z,19.35
2019-05-26T05:56:26.873Z,19.31
2019-05-26T05:58:55.940Z,19.30
2019-05-26T06:01:25.398Z,19.31
2019-05-26T06:03:54.450Z,19.35
2019-05-26T06:06:23.493Z,19.41
2019-05-26T06:08:53.055Z,19.55
2019-05-26T06:11:22.135Z,19.58
2019-05-26T06:13:51.265Z,19.65
2019-05-26T06:16:20.280Z,19.32
2019-05-26T06:18:52.406Z,19.56
2019-05-26T06:21:21.458Z,19.62
2019-05-26T06:23:54.814Z,19.65
2019-05-26T06:26:23.921Z,19.79
2019-05-26T06:28:52.964Z,19.93
2019-05-26T06:31:22.360Z,19.91
2019-05-26T06:33:51.417Z,19.92
2019-05-26T06:36:20.467Z,19.98
2019-05-26T06:38:49.559Z,19.96
2019-05-26T06:41:32.798Z,19.93
2019-05-26T06:43:52.060Z,19.94
2019-05-26T06:46:21.166Z,19.95
2019-05-26T06:48:50.242Z,19.99
2019-05-26T06:51:19.394Z,20.00
2019-05-26T06:53:48.505Z,20.09
2019-05-26T06:56:17.965Z,20.13
2019-05-26T06:58:47.156Z,20.08
2019-05-26T07:01:16.322Z,20.20
2019-05-26T07:03:45.768Z,20.21
2019-05-26T07:06:14.845Z,20.09
2019-05-26T07:08:43.955Z,20.14
2019-05-26T07:11:15.505Z,20.21
2019-05-26T07:13:44.620Z,20.13
2019-05-26T07:16:13.718Z,20.26
2019-05-26T07:18:43.058Z,20.33
2019-05-26T07:21:12.121Z,20.17
2019-05-26T07:23:41.662Z,20.35
2019-05-26T07:26:12.673Z,20.28
2019-05-26T07:28:41.808Z,20.27
2019-05-26T07:31:10.898Z,20.23
2019-05-26T07:33:40.023Z,20.36
2019-05-26T07:36:09.595Z,20.38
2019-05-26T07:38:38.729Z,20.38
2019-05-26T07:41:08.110Z,20.21
2019-05-26T07:43:40.897Z,20.32
2019-05-26T07:46:10.887Z,20.36
2019-05-26T07:48:40.440Z,20.25
2019-05-26T07:51:14.029Z,20.36
2019-05-26T07:53:46.101Z,20.31
2019-05-26T07:56:16.876Z,20.36
2019-05-26T07:58:47.056Z,20.41
2019-05-26T08:01:16.162Z,20.34
2019-05-26T08:03:46.675Z,20.44
2019-05-26T08:06:16.186Z,20.34
2019-05-26T08:08:45.374Z,20.31
2019-05-26T08:11:17.338Z,20.32
2019-05-26T08:13:53.079Z,20.41
2019-05-26T08:16:22.798Z,20.50
2019-05-26T08:18:55.570Z,20.52
2019-05-26T08:21:24.992Z,20.59
2019-05-26T08:23:54.439Z,20.55
2019-05-26T08:26:23.606Z,20.64
2019-05-26T08:28:54.721Z,20.45
2019-05-26T08:31:24.281Z,20.59
2019-05-26T08:33:53.520Z,20.70
2019-05-26T08:36:23.604Z,20.81
2019-05-26T08:38:53.677Z,20.95
2019-05-26T08:44:17.855Z,21.20
2019-05-26T08:46:48.045Z,21.28
2019-05-26T08:49:17.859Z,21.26
2019-05-26T08:51:49.867Z,21.31
2019-05-26T08:54:20.114Z,21.38
2019-05-26T08:56:52.279Z,21.42
2019-05-26T08:59:22.759Z,21.38
2019-05-26T09:01:52.383Z,21.49
2019-05-26T09:04:21.753Z,21.54
2019-05-26T09:06:51.137Z,21.51
2019-05-26T09:09:20.210Z,21.48
2019-05-26T09:11:49.275Z,21.46
2019-05-26T09:14:18.683Z,21.45
2019-05-26T09:16:47.879Z,21.59
2019-05-26T09:19:17.429Z,21.60
2019-05-26T09:21:47.007Z,21.59
2019-05-26T09:24:16.099Z,21.51
2019-05-26T09:26:45.419Z,21.60
2019-05-26T09:29:14.791Z,21.67
2019-05-26T09:31:44.270Z,21.94
2019-05-26T09:34:13.327Z,22.08
2019-05-26T09:36:43.707Z,22.09
2019-05-26T09:39:12.768Z,22.16
2019-05-26T09:41:46.236Z,22.15
2019-05-26T09:44:15.742Z,22.28
2019-05-26T09:46:44.830Z,22.34
2019-05-26T09:49:14.873Z,22.50
2019-05-26T09:51:44.448Z,22.38
2019-05-26T09:54:13.554Z,22.46
2019-05-26T09:56:42.610Z,22.54
2019-05-26T09:59:14.325Z,22.69
2019-05-26T10:01:43.434Z,22.78
2019-05-26T10:04:12.520Z,22.87
2019-05-26T10:06:49.237Z,22.65
2019-05-26T10:09:19.882Z,22.58
2019-05-26T10:11:49.179Z,22.56
2019-05-26T10:14:19.629Z,22.53
2019-05-26T10:16:49.921Z,22.63
2019-05-26T10:19:34.122Z,22.47
2019-05-26T10:22:05.020Z,22.64
2019-05-26T10:24:40.959Z,22.48
2019-05-26T10:27:10.024Z,22.50
2019-05-26T10:29:39.106Z,22.47
2019-05-26T10:32:08.479Z,22.73
2019-05-26T10:34:38.158Z,22.76
2019-05-26T10:37:08.340Z,22.70
2019-05-26T10:39:38.776Z,23.02
2019-05-26T10:42:13.288Z,23.15
2019-05-26T10:44:43.309Z,23.47
2019-05-26T10:47:12.815Z,23.74
2019-05-26T10:49:41.894Z,24.04
2019-05-26T10:52:11.136Z,23.99
2019-05-26T10:54:40.624Z,24.19
2019-05-26T10:57:09.717Z,24.33
2019-05-26T10:59:38.869Z,24.42
2019-05-26T11:02:09.654Z,23.97
2019-05-26T11:04:39.795Z,24.17
2019-05-26T11:07:08.908Z,23.97
2019-05-26T11:09:38.908Z,24.11
2019-05-26T11:12:08.260Z,24.38
2019-05-26T11:14:37.621Z,24.21
2019-05-26T11:17:07.104Z,24.09
2019-05-26T11:19:36.173Z,24.45
2019-05-26T11:22:06.240Z,24.36
2019-05-26T11:24:35.824Z,24.45
2019-05-26T11:27:10.762Z,24.44
2019-05-26T11:29:35.835Z,24.48
2019-05-26T11:32:06.061Z,24.56
2019-05-26T11:34:35.168Z,24.73
2019-05-26T11:37:04.410Z,24.99
2019-05-26T11:39:33.826Z,25.18
2019-05-26T11:42:12.905Z,25.36
2019-05-26T11:44:34.917Z,25.51
2019-05-26T11:47:04.610Z,25.80
2019-05-26T11:49:33.716Z,26.01
2019-05-26T11:52:04.482Z,26.46
2019-05-26T11:54:34.855Z,26.63
2019-05-26T11:57:04.319Z,26.64
2019-05-26T11:59:33.412Z,26.46
2019-05-26T12:02:04.501Z,26.47
2019-05-26T12:04:35.368Z,26.59
2019-05-26T12:07:04.889Z,26.33
2019-05-26T12:09:36.565Z,26.46
2019-05-26T12:12:09.809Z,26.64
2019-05-26T12:14:38.990Z,26.90
2019-05-26T12:17:08.370Z,27.02
2019-05-26T12:19:38.410Z,26.22
2019-05-26T12:22:08.600Z,25.71
2019-05-26T12:24:37.925Z,25.82
2019-05-26T12:27:07.338Z,25.83
2019-05-26T12:29:36.600Z,26.30
2019-05-26T12:32:08.663Z,26.80
2019-05-26T12:34:39.163Z,26.90
2019-05-26T12:37:08.443Z,26.89
2019-05-26T12:39:39.347Z,26.61
2019-05-26T12:42:11.495Z,26.67
2019-05-26T12:44:49.419Z,26.63
2019-05-26T12:47:13.705Z,26.52
2019-05-26T12:49:43.399Z,26.43
2019-05-26T12:52:12.543Z,26.33
2019-05-26T12:54:41.625Z,26.41
2019-05-26T12:57:12.001Z,26.73
2019-05-26T12:59:41.080Z,27.25
2019-05-26T13:02:10.237Z,27.67
2019-05-26T13:04:39.726Z,28.20
2019-05-26T13:07:08.823Z,28.76
2019-05-26T13:09:37.902Z,29.27
2019-05-26T13:12:07.414Z,29.75
2019-05-26T13:14:36.635Z,29.94
2019-05-26T13:17:07.346Z,30.14
2019-05-26T13:19:37.267Z,30.00
2019-05-26T13:22:06.603Z,30.21
2019-05-26T13:24:35.700Z,30.07
2019-05-26T13:27:05.276Z,30.08
2019-05-26T13:29:34.338Z,30.60
2019-05-26T13:32:04.662Z,30.41
2019-05-26T13:34:35.882Z,29.96
2019-05-26T13:37:05.897Z,30.23
2019-05-26T13:39:34.972Z,30.62
2019-05-26T13:42:07.357Z,31.25
2019-05-26T13:44:36.736Z,31.66
2019-05-26T13:47:05.848Z,31.93
2019-05-26T13:49:35.308Z,32.69
2019-05-26T13:52:08.518Z,32.59
2019-05-26T13:54:37.604Z,31.75
2019-05-26T13:57:07.046Z,31.84
2019-05-26T13:59:37.937Z,32.25
2019-05-26T14:02:07.284Z,32.91
2019-05-26T14:04:36.814Z,33.73
2019-05-26T14:07:08.802Z,34.17
2019-05-26T14:09:44.185Z,33.27
2019-05-26T14:12:13.561Z,32.69
2019-05-26T14:14:42.652Z,32.95
2019-05-26T14:17:12.348Z,33.08
2019-05-26T14:19:43.272Z,32.52
2019-05-26T14:22:12.324Z,31.67
2019-05-26T14:24:53.289Z,30.62
2019-05-26T14:27:12.566Z,30.00
2019-05-26T14:29:41.660Z,30.42
2019-05-26T14:32:13.558Z,30.84
2019-05-26T14:34:42.910Z,31.09
2019-05-26T14:37:11.964Z,32.81
2019-05-26T14:39:41.027Z,33.47
2019-05-26T14:42:10.363Z,33.91
2019-05-26T14:44:39.439Z,33.66
2019-05-26T14:47:08.516Z,32.36
2019-05-26T14:49:37.911Z,30.65
2019-05-26T14:52:07.088Z,29.49
2019-05-26T14:54:36.195Z,28.88
2019-05-26T14:57:05.597Z,28.64
2019-05-26T14:59:34.711Z,28.24
2019-05-26T15:02:05.832Z,29.67
2019-05-26T15:04:35.243Z,30.58
2019-05-26T15:07:04.415Z,30.39
2019-05-26T15:09:33.522Z,30.55
2019-05-26T15:12:03.933Z,30.30
2019-05-26T15:14:32.961Z,30.27
2019-05-26T15:17:02.061Z,31.97
2019-05-26T15:19:31.146Z,34.11
2019-05-26T15:22:00.215Z,35.36
2019-05-26T15:24:29.773Z,34.47
2019-05-26T15:26:58.832Z,33.19
2019-05-26T15:29:28.179Z,31.55
2019-05-26T15:31:57.306Z,32.55
2019-05-26T15:34:26.379Z,33.09
2019-05-26T15:36:56.754Z,32.60
2019-05-26T15:39:25.852Z,32.11
2019-05-26T15:41:54.955Z,30.84
2019-05-26T15:44:24.489Z,30.28
2019-05-26T15:46:53.683Z,30.14
2019-05-26T15:49:22.775Z,30.12
2019-05-26T15:51:52.146Z,30.82
2019-05-26T15:54:21.442Z,30.95
2019-05-26T15:56:50.898Z,29.83
2019-05-26T15:59:20.248Z,29.56
2019-05-26T16:01:49.344Z,29.06
2019-05-26T16:04:19.276Z,28.97
2019-05-26T16:06:48.659Z,29.00
2019-05-26T16:09:17.790Z,29.14
2019-05-26T16:11:46.863Z,29.14
2019-05-26T16:14:16.308Z,29.10
2019-05-26T16:16:45.425Z,29.38
2019-05-26T16:19:14.478Z,29.11
2019-05-26T16:21:43.873Z,28.61
2019-05-26T16:24:12.943Z,28.34
2019-05-26T16:26:42.036Z,28.52
2019-05-26T16:29:11.699Z,28.37
2019-05-26T16:31:40.793Z,28.62
2019-05-26T16:34:10.525Z,28.28
2019-05-26T16:36:40.043Z,28.07
2019-05-26T16:39:09.177Z,27.62
2019-05-26T16:41:38.296Z,27.67
2019-05-26T16:44:10.771Z,27.75
2019-05-26T16:46:53.664Z,27.71
2019-05-26T16:49:11.039Z,27.48
2019-05-26T16:51:40.365Z,27.52
2019-05-26T16:54:09.468Z,27.52
2019-05-26T16:56:38.568Z,27.35
2019-05-26T16:59:08.074Z,27.10
2019-05-26T17:01:37.403Z,26.97
2019-05-26T17:04:06.477Z,26.76
2019-05-26T17:06:36.796Z,26.51
2019-05-26T17:09:11.391Z,26.28
2019-05-26T17:11:40.503Z,26.13
2019-05-26T17:14:09.582Z,25.98
2019-05-26T17:16:39.096Z,25.82
2019-05-26T17:19:08.702Z,25.61
2019-05-26T17:21:37.785Z,25.67
2019-05-26T17:24:07.107Z,25.70
2019-05-26T17:26:36.630Z,25.81
2019-05-26T17:29:05.943Z,25.86
2019-05-26T17:31:35.162Z,26.29
2019-05-26T17:34:07.782Z,26.69
2019-05-26T17:36:37.209Z,27.03
2019-05-26T17:39:07.921Z,27.04
2019-05-26T17:41:37.594Z,27.02
2019-05-26T17:44:07.061Z,26.89
2019-05-26T17:46:36.375Z,26.79
2019-05-26T17:49:06.008Z,26.58
2019-05-26T17:51:35.281Z,26.62
2019-05-26T17:54:07.182Z,26.70
2019-05-26T17:56:36.680Z,26.71
2019-05-26T17:59:05.821Z,26.67
2019-05-26T18:01:34.934Z,26.63
2019-05-26T18:04:06.785Z,26.67
2019-05-26T18:06:35.912Z,26.64
2019-05-26T18:09:08.424Z,26.43
2019-05-26T18:11:37.545Z,26.32
2019-05-26T18:14:06.658Z,26.04
2019-05-26T18:16:36.070Z,25.85
2019-05-26T18:19:05.229Z,25.79
2019-05-26T18:21:34.476Z,25.50
2019-05-26T18:24:12.417Z,25.39
2019-05-26T18:26:44.411Z,25.18
2019-05-26T18:29:14.146Z,25.09
2019-05-26T18:31:43.551Z,25.00
2019-05-26T18:34:13.747Z,25.03
2019-05-26T18:36:43.038Z,24.94
2019-05-26T18:39:13.870Z,24.79
2019-05-26T18:41:43.305Z,24.68
2019-05-26T18:44:12.443Z,24.62
2019-05-26T18:46:41.933Z,24.57
2019-05-26T18:49:11.678Z,24.41
2019-05-26T18:51:41.227Z,24.26
2019-05-26T18:54:11.041Z,24.19
2019-05-26T18:56:40.205Z,24.14
2019-05-26T18:59:09.651Z,23.99
2019-05-26T19:01:39.515Z,23.98
2019-05-26T19:04:08.626Z,23.88
2019-05-26T19:06:37.753Z,23.88
2019-05-26T19:09:09.303Z,23.82
2019-05-26T19:11:39.403Z,23.80
2019-05-26T19:14:09.332Z,23.77
2019-05-26T19:16:39.507Z,23.77
2019-05-26T19:19:08.935Z,23.69
2019-05-26T19:21:38.481Z,23.62
2019-05-26T19:24:08.338Z,23.61
2019-05-26T19:26:37.958Z,23.57
2019-05-26T19:29:07.046Z,23.46
2019-05-26T19:31:36.424Z,23.38
2019-05-26T19:34:07.833Z,23.34
2019-05-26T19:36:36.941Z,23.24
2019-05-26T19:39:08.552Z,23.14
2019-05-26T19:41:39.335Z,23.18
2019-05-26T19:44:08.768Z,23.12
2019-05-26T19:46:38.188Z,23.06
2019-05-26T19:49:07.319Z,22.96
2019-05-26T19:51:36.464Z,23.02
2019-05-26T19:54:08.614Z,23.05
2019-05-26T19:56:37.849Z,22.92
2019-05-26T19:59:06.943Z,22.97
2019-05-26T20:01:36.310Z,22.84
2019-05-26T20:04:08.294Z,22.87
2019-05-26T20:06:37.412Z,22.92
2019-05-26T20:09:08.757Z,22.87
2019-05-26T20:11:38.690Z,22.81
2019-05-26T20:14:08.667Z,22.72
2019-05-26T20:16:39.931Z,22.65
2019-05-26T20:19:10.989Z,22.71
2019-05-26T20:21:40.338Z,22.68
2019-05-26T20:24:10.293Z,22.65
2019-05-26T20:26:42.507Z,22.56
2019-05-26T20:29:11.667Z,22.57
2019-05-26T20:31:41.210Z,22.57
2019-05-26T20:34:10.305Z,22.46
2019-05-26T20:36:39.544Z,22.47
2019-05-26T20:39:09.769Z,22.37
2019-05-26T20:41:38.935Z,22.29
2019-05-26T20:44:08.216Z,22.32
2019-05-26T20:46:38.004Z,22.31
2019-05-26T20:49:07.113Z,22.32
2019-05-26T20:51:36.270Z,22.20
2019-05-26T20:54:09.446Z,22.22
2019-05-26T20:56:39.936Z,22.16
2019-05-26T20:59:10.645Z,22.07
2019-05-26T21:01:41.742Z,22.02
2019-05-26T21:04:11.092Z,22.01
2019-05-26T21:06:40.169Z,21.92
2019-05-26T21:09:11.235Z,21.84
2019-05-26T21:11:45.645Z,21.86
2019-05-26T21:14:14.786Z,21.82
2019-05-26T21:16:46.433Z,21.74
2019-05-26T21:19:15.908Z,21.76
2019-05-26T21:21:45.074Z,21.80
2019-05-26T21:24:14.452Z,21.76
2019-05-26T21:26:43.550Z,21.67
2019-05-26T21:29:13.221Z,21.64
2019-05-26T21:31:43.925Z,21.67
2019-05-26T21:34:13.091Z,21.57
2019-05-26T21:36:43.344Z,21.55
2019-05-26T21:39:12.701Z,21.44
2019-05-26T21:41:41.760Z,21.51
2019-05-26T21:44:11.157Z,21.36
2019-05-26T21:46:43.123Z,21.41
2019-05-26T21:49:12.164Z,21.36
2019-05-26T21:51:43.757Z,21.40
2019-05-26T21:54:14.061Z,21.44
2019-05-26T21:56:43.386Z,21.38
2019-05-26T21:59:12.994Z,21.28
2019-05-26T22:01:42.125Z,21.32
2019-05-26T22:04:11.182Z,21.29
2019-05-26T22:06:40.567Z,21.35
2019-05-26T22:09:09.654Z,21.36
2019-05-26T22:11:38.709Z,21.35
2019-05-26T22:14:08.092Z,21.35
2019-05-26T22:16:37.140Z,21.39
2019-05-26T22:19:07.048Z,21.28
2019-05-26T22:21:36.126Z,21.31
2019-05-26T22:24:08.066Z,21.20
2019-05-26T22:26:37.425Z,21.15
2019-05-26T22:29:06.523Z,21.19
2019-05-26T22:31:35.590Z,21.19
2019-05-26T22:34:05.945Z,21.19
2019-05-26T22:36:35.096Z,21.17
2019-05-26T22:39:05.209Z,21.17
2019-05-26T22:41:34.578Z,21.09
2019-05-26T22:44:06.495Z,21.14
2019-05-26T22:46:35.605Z,21.10
2019-05-26T22:49:05.049Z,21.08
2019-05-26T22:51:34.159Z,21.07
2019-05-26T22:54:03.892Z,21.08
2019-05-26T22:56:32.973Z,21.01
2019-05-26T22:59:02.598Z,21.02
2019-05-26T23:01:32.053Z,20.92
2019-05-26T23:04:03.189Z,20.96
2019-05-26T23:06:32.200Z,20.94
2019-05-26T23:09:01.242Z,20.88
2019-05-26T23:11:30.571Z,20.85
2019-05-26T23:14:00.025Z,20.83
2019-05-26T23:16:29.117Z,20.76
2019-05-26T23:18:58.164Z,20.72
2019-05-26T23:21:28.465Z,20.71
2019-05-26T23:23:57.505Z,20.66
2019-05-26T23:26:26.572Z,20.62
2019-05-26T23:28:55.719Z,20.53
2019-05-26T23:31:25.642Z,20.50
2019-05-26T23:33:54.697Z,20.46
2019-05-26T23:36:23.858Z,20.45
2019-05-26T23:38:53.434Z,20.42
2019-05-26T23:41:22.534Z,20.38
2019-05-26T23:43:51.670Z,20.27
2019-05-26T23:46:20.755Z,20.26
2019-05-26T23:48:50.119Z,20.17
2019-05-26T23:51:19.206Z,20.12
2019-05-26T23:53:48.248Z,20.03
2019-05-26T23:56:17.705Z,19.97
2019-05-26T23:58:47.217Z,19.86
